createdAt,value
2019-02-06T00:01:31.264Z,44.20
2019-02-06T00:03:59.347Z,44.38
2019-02-06T00:06:27.468Z,44.26
2019-02-06T00:08:55.265Z,44.29
2019-02-06T00:11:23.156Z,44.22
2019-02-06T00:13:50.973Z,44.44
2019-02-06T00:16:18.824Z,44.42
2019-02-06T00:18:46.628Z,44.56
2019-02-06T00:21:14.448Z,44.45
2019-02-06T00:23:42.368Z,44.48
2019-02-06T00:26:10.274Z,44.43
2019-02-06T00:28:38.378Z,44.41
2019-02-06T00:31:06.479Z,44.41
2019-02-06T00:33:34.293Z,44.36
2019-02-06T00:36:02.102Z,44.18
2019-02-06T00:38:29.850Z,44.05
2019-02-06T00:40:57.787Z,44.29
2019-02-06T00:43:25.921Z,44.27
2019-02-06T00:45:53.844Z,44.20
2019-02-06T00:48:21.592Z,44.37
2019-02-06T00:50:49.345Z,44.27
2019-02-06T00:53:17.465Z,44.24
2019-02-06T00:55:45.209Z,44.23
2019-02-06T00:58:12.948Z,44.44
2019-02-06T01:00:41.285Z,44.46
2019-02-06T01:03:09.158Z,44.34
2019-02-06T01:05:38.708Z,44.41
2019-02-06T01:08:08.731Z,44.46
2019-02-06T01:10:36.588Z,44.00
2019-02-06T01:13:04.678Z,44.27
2019-02-06T01:15:32.408Z,44.23
2019-02-06T01:18:00.498Z,44.27
2019-02-06T01:20:28.308Z,44.01
2019-02-06T01:22:57.244Z,44.08
2019-02-06T01:25:24.996Z,43.98
2019-02-06T01:27:52.828Z,43.99
2019-02-06T01:30:22.846Z,44.13
2019-02-06T01:32:50.789Z,43.88
2019-02-06T01:35:18.798Z,44.04
2019-02-06T01:37:46.540Z,44.12
2019-02-06T01:40:15.013Z,43.93
2019-02-06T01:42:42.864Z,44.06
2019-02-06T01:45:11.444Z,44.14
2019-02-06T01:47:39.216Z,44.35
2019-02-06T01:50:09.582Z,44.37
2019-02-06T01:52:37.423Z,44.28
2019-02-06T01:55:05.429Z,44.28
2019-02-06T01:57:33.177Z,44.00
2019-02-06T02:00:00.972Z,43.92
2019-02-06T02:02:28.822Z,44.16
2019-02-06T02:04:56.648Z,44.28
2019-02-06T02:07:24.472Z,44.29
2019-02-06T02:09:52.601Z,44.24
2019-02-06T02:12:20.461Z,44.62
2019-02-06T02:14:48.343Z,44.54
2019-02-06T02:17:16.180Z,44.03
2019-02-06T02:19:43.984Z,43.92
2019-02-06T02:22:11.749Z,43.67
2019-02-06T02:24:39.549Z,43.82
2019-02-06T02:27:07.521Z,43.91
2019-02-06T02:29:35.293Z,44.08
2019-02-06T02:32:03.223Z,43.62
2019-02-06T02:34:31.091Z,43.91
2019-02-06T02:36:58.881Z,43.86
2019-02-06T02:39:26.688Z,43.70
2019-02-06T02:41:54.428Z,43.62
2019-02-06T02:44:22.310Z,43.84
2019-02-06T02:46:50.104Z,43.96
2019-02-06T02:49:17.850Z,43.43
2019-02-06T02:51:45.607Z,43.54
2019-02-06T02:54:13.531Z,43.48
2019-02-06T02:56:41.407Z,44.04
2019-02-06T02:59:09.200Z,43.54
2019-02-06T03:02:02.407Z,43.92
2019-02-06T03:04:40.702Z,43.60
2019-02-06T03:07:08.530Z,43.46
2019-02-06T03:09:36.931Z,43.49
2019-02-06T03:12:04.691Z,43.58
2019-02-06T03:14:32.431Z,43.61
2019-02-06T03:17:03.260Z,43.18
2019-02-06T03:19:29.789Z,42.93
2019-02-06T03:21:57.529Z,43.16
2019-02-06T03:24:25.371Z,43.50
2019-02-06T03:26:53.373Z,43.16
2019-02-06T03:29:21.149Z,43.60
2019-02-06T03:31:49.030Z,43.55
2019-02-06T03:34:16.939Z,42.79
2019-02-06T03:36:44.752Z,42.96
2019-02-06T03:39:12.590Z,42.87
2019-02-06T03:41:40.329Z,43.14
2019-02-06T03:44:08.473Z,43.01
2019-02-06T03:46:36.318Z,42.58
2019-02-06T03:49:04.215Z,43.16
2019-02-06T03:51:32.076Z,44.25
2019-02-06T03:53:59.829Z,42.76
2019-02-06T03:56:27.643Z,42.83
2019-02-06T03:58:55.427Z,42.97
2019-02-06T04:01:23.562Z,42.92
2019-02-06T04:03:51.367Z,43.13
2019-02-06T04:06:19.291Z,42.92
2019-02-06T04:08:47.118Z,43.12
2019-02-06T04:11:14.863Z,43.08
2019-02-06T04:13:42.628Z,43.44
2019-02-06T04:16:10.402Z,43.08
2019-02-06T04:18:38.550Z,42.97
2019-02-06T04:21:06.320Z,43.04
2019-02-06T04:23:34.137Z,43.19
2019-02-06T04:26:02.046Z,42.89
2019-02-06T04:28:29.809Z,43.15
2019-02-06T04:30:57.654Z,42.81
2019-02-06T04:33:25.515Z,42.69
2019-02-06T04:35:53.740Z,42.70
2019-02-06T04:38:21.767Z,42.88
2019-02-06T04:40:49.948Z,42.61
2019-02-06T04:43:17.845Z,42.54
2019-02-06T04:45:45.658Z,42.64
2019-02-06T04:48:13.404Z,42.55
2019-02-06T04:50:41.216Z,42.38
2019-02-06T04:53:09.361Z,42.50
2019-02-06T04:55:37.200Z,42.66
2019-02-06T04:58:06.769Z,42.49
2019-02-06T05:00:34.583Z,42.57
2019-02-06T05:03:02.409Z,42.44
2019-02-06T05:05:30.192Z,42.39
2019-02-06T05:07:58.057Z,42.57
2019-02-06T05:10:26.212Z,42.58
2019-02-06T05:12:54.019Z,42.55
2019-02-06T05:15:21.816Z,42.59
2019-02-06T05:17:49.786Z,43.81
2019-02-06T05:20:20.632Z,42.38
2019-02-06T05:22:48.454Z,42.65
2019-02-06T05:25:16.284Z,42.93
2019-02-06T05:27:44.628Z,43.13
2019-02-06T05:30:12.497Z,42.99
2019-02-06T05:32:42.940Z,42.41
2019-02-06T05:35:10.017Z,42.43
2019-02-06T05:38:09.491Z,42.77
2019-02-06T05:40:37.280Z,42.64
2019-02-06T05:43:05.027Z,42.55
2019-02-06T05:45:32.891Z,42.13
2019-02-06T05:48:00.856Z,42.42
2019-02-06T05:50:28.620Z,42.14
2019-02-06T05:52:56.509Z,41.70
2019-02-06T05:55:27.828Z,43.15
2019-02-06T05:57:55.730Z,42.04
2019-02-06T06:00:27.387Z,42.14
2019-02-06T06:02:56.926Z,42.08
2019-02-06T06:05:24.909Z,42.00
2019-02-06T06:07:52.988Z,41.83
2019-02-06T06:10:20.846Z,42.06
2019-02-06T06:12:48.575Z,41.89
2019-02-06T06:15:27.414Z,41.78
2019-02-06T06:17:55.273Z,41.61
2019-02-06T06:20:23.102Z,42.22
2019-02-06T06:22:50.991Z,41.91
2019-02-06T06:25:18.839Z,42.25
2019-02-06T06:27:46.993Z,42.30
2019-02-06T06:30:15.382Z,42.44
2019-02-06T06:32:43.550Z,42.03
2019-02-06T06:35:11.460Z,42.45
2019-02-06T06:37:41.339Z,42.45
2019-02-06T06:40:10.237Z,42.56
2019-02-06T06:42:38.169Z,42.36
2019-02-06T06:45:07.672Z,42.30
2019-02-06T06:47:35.564Z,42.44
2019-02-06T06:50:03.600Z,42.27
2019-02-06T06:52:31.472Z,42.21
2019-02-06T06:54:59.349Z,42.16
2019-02-06T06:57:27.117Z,42.15
2019-02-06T06:59:55.695Z,41.91
2019-02-06T07:02:23.705Z,42.16
2019-02-06T07:04:51.533Z,42.17
2019-02-06T07:07:19.281Z,42.33
2019-02-06T07:09:47.140Z,42.31
2019-02-06T07:12:14.872Z,42.40
2019-02-06T07:14:42.671Z,42.36
2019-02-06T07:17:10.522Z,42.52
2019-02-06T07:19:38.354Z,42.50
2019-02-06T07:22:06.193Z,42.51
2019-02-06T07:24:34.152Z,42.93
2019-02-06T07:27:01.983Z,42.63
2019-02-06T07:29:29.736Z,42.39
2019-02-06T07:31:57.469Z,42.39
2019-02-06T07:34:25.244Z,42.22
2019-02-06T07:36:53.138Z,42.22
2019-02-06T07:39:20.909Z,42.40
2019-02-06T07:41:48.737Z,42.20
2019-02-06T07:44:16.555Z,42.24
2019-02-06T07:46:44.419Z,42.09
2019-02-06T07:49:12.193Z,42.09
2019-02-06T07:51:39.956Z,41.95
2019-02-06T07:54:08.263Z,41.88
2019-02-06T07:56:36.078Z,41.85
2019-02-06T07:59:04.186Z,41.99
2019-02-06T08:01:32.088Z,41.87
2019-02-06T08:03:59.826Z,42.20
2019-02-06T08:06:27.569Z,42.15
2019-02-06T08:08:55.328Z,41.93
2019-02-06T08:11:23.561Z,42.07
2019-02-06T08:13:51.780Z,42.03
2019-02-06T08:16:19.587Z,41.94
2019-02-06T08:18:47.512Z,41.80
2019-02-06T08:21:15.244Z,41.87
2019-02-06T08:23:42.977Z,42.06
2019-02-06T08:26:10.739Z,41.93
2019-02-06T08:28:38.864Z,42.05
2019-02-06T08:31:06.728Z,41.94
2019-02-06T08:33:34.598Z,42.08
2019-02-06T08:36:02.407Z,42.04
2019-02-06T08:38:30.332Z,41.98
2019-02-06T08:40:58.109Z,42.17
2019-02-06T08:43:26.015Z,42.23
2019-02-06T08:45:54.056Z,41.94
2019-02-06T08:48:21.887Z,42.25
2019-02-06T08:50:49.619Z,42.15
2019-02-06T08:53:17.467Z,42.34
2019-02-06T08:55:45.228Z,42.30
2019-02-06T08:58:12.964Z,42.40
2019-02-06T09:00:40.751Z,42.39
2019-02-06T09:03:09.347Z,42.23
2019-02-06T09:05:37.112Z,42.32
2019-02-06T09:08:05.608Z,42.36
2019-02-06T09:10:33.361Z,42.64
2019-02-06T09:13:01.167Z,42.35
2019-02-06T09:15:28.924Z,42.37
2019-02-06T09:17:56.760Z,42.31
2019-02-06T09:20:25.228Z,42.26
2019-02-06T09:22:53.080Z,42.47
2019-02-06T09:25:21.008Z,42.65
2019-02-06T09:27:48.771Z,42.57
2019-02-06T09:30:20.373Z,42.64
2019-02-06T09:32:48.168Z,42.53
2019-02-06T09:35:15.983Z,42.45
2019-02-06T09:37:44.013Z,42.63
2019-02-06T09:40:12.464Z,42.57
2019-02-06T09:42:40.248Z,42.59
2019-02-06T09:45:08.465Z,42.48
2019-02-06T09:47:36.275Z,42.47
2019-02-06T09:50:05.121Z,42.41
2019-02-06T09:52:32.905Z,42.51
2019-02-06T09:55:01.127Z,42.52
2019-02-06T09:57:28.927Z,42.49
2019-02-06T09:59:56.680Z,42.61
2019-02-06T10:02:24.443Z,42.97
2019-02-06T10:04:52.263Z,42.71
2019-02-06T10:07:19.985Z,42.78
2019-02-06T10:09:47.784Z,43.00
2019-02-06T10:12:16.002Z,42.75
2019-02-06T10:14:43.833Z,43.27
2019-02-06T10:17:11.585Z,42.90
2019-02-06T10:19:42.350Z,42.74
2019-02-06T10:22:09.024Z,42.91
2019-02-06T10:24:36.770Z,42.90
2019-02-06T10:27:04.598Z,42.95
2019-02-06T10:29:32.827Z,43.05
2019-02-06T10:32:00.580Z,43.09
2019-02-06T10:34:28.350Z,43.01
2019-02-06T10:36:56.101Z,43.06
2019-02-06T10:39:33.981Z,43.11
2019-02-06T10:41:53.373Z,43.05
2019-02-06T10:44:21.214Z,43.18
2019-02-06T10:46:49.224Z,43.11
2019-02-06T10:49:16.963Z,43.22
2019-02-06T10:51:44.744Z,42.97
2019-02-06T10:54:14.614Z,42.83
2019-02-06T10:56:42.044Z,42.92
2019-02-06T10:59:09.864Z,43.00
2019-02-06T11:01:37.624Z,43.20
2019-02-06T11:04:05.546Z,43.16
2019-02-06T11:06:33.562Z,42.94
2019-02-06T11:09:01.320Z,43.11
2019-02-06T11:11:29.103Z,43.35
2019-02-06T11:13:56.912Z,43.36
2019-02-06T11:16:24.656Z,43.38
2019-02-06T11:18:52.411Z,43.36
2019-02-06T11:21:20.537Z,43.34
2019-02-06T11:23:48.428Z,43.66
2019-02-06T11:26:16.204Z,43.50
2019-02-06T11:28:44.028Z,43.39
2019-02-06T11:31:11.940Z,43.48
2019-02-06T11:33:39.688Z,43.76
2019-02-06T11:36:07.754Z,43.60
2019-02-06T11:38:35.776Z,43.58
2019-02-06T11:41:03.711Z,43.55
2019-02-06T11:43:32.129Z,43.64
2019-02-06T11:55:45.379Z,43.79
2019-02-06T11:58:13.152Z,44.16
2019-02-06T12:01:06.275Z,44.17
2019-02-06T12:03:34.028Z,44.19
2019-02-06T12:06:02.042Z,44.21
2019-02-06T12:08:31.253Z,44.27
2019-02-06T12:10:59.152Z,44.48
2019-02-06T12:13:27.164Z,44.38
2019-02-06T12:15:54.988Z,44.53
2019-02-06T12:18:22.769Z,44.39
2019-02-06T12:20:51.735Z,44.21
2019-02-06T12:23:31.544Z,44.57
2019-02-06T12:25:51.832Z,44.41
2019-02-06T12:28:19.613Z,44.39
2019-02-06T12:30:47.432Z,44.35
2019-02-06T12:33:15.237Z,44.38
2019-02-06T12:35:43.146Z,44.33
2019-02-06T12:38:10.987Z,44.45
2019-02-06T12:40:38.815Z,44.31
2019-02-06T12:43:07.188Z,44.39
2019-02-06T12:45:36.685Z,44.52
2019-02-06T12:48:04.575Z,44.69
2019-02-06T12:50:32.395Z,44.51
2019-02-06T12:53:00.242Z,44.47
2019-02-06T12:55:29.280Z,44.67
2019-02-06T12:57:57.084Z,44.60
2019-02-06T13:00:25.755Z,44.87
2019-02-06T13:02:57.305Z,44.48
2019-02-06T13:05:23.449Z,44.33
2019-02-06T13:07:51.316Z,44.43
2019-02-06T13:10:19.186Z,44.76
2019-02-06T13:12:47.142Z,44.57
2019-02-06T13:15:14.905Z,44.67
2019-02-06T13:17:42.763Z,44.92
2019-02-06T13:20:12.277Z,45.01
2019-02-06T13:22:40.046Z,44.90
2019-02-06T13:25:08.169Z,44.70
2019-02-06T13:27:36.227Z,44.75
2019-02-06T13:30:04.720Z,44.75
2019-02-06T13:32:32.444Z,44.63
2019-02-06T13:35:00.335Z,44.78
2019-02-06T13:37:28.436Z,45.01
2019-02-06T13:39:56.224Z,44.68
2019-02-06T13:42:24.003Z,44.75
2019-02-06T13:44:51.789Z,44.80
2019-02-06T13:47:19.619Z,44.81
2019-02-06T13:49:47.445Z,44.82
2019-02-06T13:52:15.472Z,44.84
2019-02-06T13:54:43.235Z,44.80
2019-02-06T13:57:11.069Z,44.91
2019-02-06T13:59:38.891Z,44.85
2019-02-06T14:02:06.648Z,45.03
2019-02-06T14:04:34.415Z,44.95
2019-02-06T14:07:02.216Z,44.99
2019-02-06T14:09:29.958Z,44.99
2019-02-06T14:11:57.700Z,45.75
2019-02-06T14:14:26.990Z,44.97
2019-02-06T14:16:54.971Z,44.85
2019-02-06T14:19:22.800Z,44.98
2019-02-06T14:21:50.836Z,45.13
2019-02-06T14:24:37.864Z,45.05
2019-02-06T14:27:24.896Z,45.27
2019-02-06T14:30:27.344Z,45.24
2019-02-06T14:33:02.372Z,45.16
2019-02-06T14:35:33.614Z,45.02
2019-02-06T14:38:30.002Z,45.00
2019-02-06T14:41:08.635Z,45.17
2019-02-06T14:44:03.756Z,45.24
2019-02-06T14:47:09.063Z,45.29
2019-02-06T14:49:55.018Z,45.26
2019-02-06T14:52:26.541Z,45.19
2019-02-06T14:55:00.664Z,45.22
2019-02-06T14:57:35.730Z,45.45
2019-02-06T15:00:26.330Z,45.37
2019-02-06T15:03:13.494Z,45.38
2019-02-06T15:06:03.726Z,45.48
2019-02-06T15:08:40.491Z,45.42
2019-02-06T15:11:19.695Z,45.38
2019-02-06T15:13:55.800Z,45.53
2019-02-06T15:16:48.884Z,45.24
2019-02-06T15:19:38.816Z,45.52
2019-02-06T15:22:15.309Z,45.46
2019-02-06T15:25:11.238Z,45.42
2019-02-06T15:27:57.080Z,45.52
2019-02-06T15:30:34.180Z,45.45
2019-02-06T15:33:23.782Z,45.58
2019-02-06T15:35:59.104Z,45.48
2019-02-06T15:38:39.977Z,45.50
2019-02-06T15:41:31.340Z,45.39
2019-02-06T15:44:05.849Z,45.54
2019-02-06T15:46:47.439Z,45.51
2019-02-06T15:49:23.881Z,45.78
2019-02-06T15:52:29.357Z,45.63
2019-02-06T15:55:15.342Z,45.77
2019-02-06T15:58:20.988Z,45.74
2019-02-06T16:01:07.060Z,45.73
2019-02-06T16:04:09.914Z,45.57
2019-02-06T16:06:56.026Z,45.58
2019-02-06T16:09:34.686Z,45.66
2019-02-06T16:12:06.023Z,45.67
2019-02-06T16:14:56.363Z,45.61
2019-02-06T16:17:42.461Z,45.60
2019-02-06T16:20:35.607Z,45.66
2019-02-06T16:23:31.668Z,45.86
2019-02-06T16:26:07.438Z,45.80
2019-02-06T16:28:57.251Z,45.66
2019-02-06T16:31:30.145Z,45.81
2019-02-06T16:34:01.825Z,45.96
2019-02-06T16:36:55.178Z,45.85
2019-02-06T16:39:29.149Z,45.82
2019-02-06T16:42:22.691Z,45.62
2019-02-06T16:44:56.615Z,45.78
2019-02-06T16:47:27.568Z,45.53
2019-02-06T16:50:26.805Z,45.64
2019-02-06T16:53:12.620Z,45.61
2019-02-06T16:55:59.481Z,45.59
2019-02-06T16:58:31.564Z,46.02
2019-02-06T17:01:17.513Z,45.71
2019-02-06T17:03:57.944Z,45.69
2019-02-06T17:06:38.671Z,45.64
2019-02-06T17:09:16.560Z,45.77
2019-02-06T17:11:49.666Z,45.79
2019-02-06T17:14:39.806Z,46.32
2019-02-06T17:17:33.262Z,45.62
2019-02-06T17:20:32.458Z,45.65
2019-02-06T17:23:19.378Z,45.75
2019-02-06T17:26:09.628Z,45.53
2019-02-06T17:28:43.312Z,45.74
2019-02-06T17:31:18.756Z,45.56
2019-02-06T17:33:50.742Z,45.65
2019-02-06T17:36:32.477Z,45.57
2019-02-06T17:39:24.414Z,45.57
2019-02-06T17:41:54.502Z,45.67
2019-02-06T17:44:25.909Z,45.55
2019-02-06T17:46:56.630Z,45.34
2019-02-06T17:49:49.736Z,45.61
2019-02-06T17:52:21.565Z,45.71
2019-02-06T17:55:07.429Z,45.69
2019-02-06T17:57:35.363Z,45.78
2019-02-06T18:00:04.450Z,45.69
2019-02-06T18:02:32.237Z,45.52
2019-02-06T18:05:00.096Z,45.84
2019-02-06T18:07:28.112Z,45.44
2019-02-06T18:09:55.967Z,45.56
2019-02-06T18:12:26.257Z,45.67
2019-02-06T18:14:53.281Z,45.74
2019-02-06T18:17:21.204Z,45.68
2019-02-06T18:19:55.267Z,45.80
2019-02-06T18:22:23.740Z,45.83
2019-02-06T18:24:51.671Z,46.00
2019-02-06T18:27:19.503Z,46.16
2019-02-06T18:29:47.262Z,45.92
2019-02-06T18:32:15.501Z,45.98
2019-02-06T18:34:43.305Z,45.86
2019-02-06T18:37:11.203Z,45.84
2019-02-06T18:39:39.034Z,45.88
2019-02-06T18:42:07.119Z,45.83
2019-02-06T18:44:34.959Z,45.90
2019-02-06T18:47:02.814Z,45.89
2019-02-06T18:49:32.155Z,46.56
2019-02-06T18:52:00.231Z,45.82
2019-02-06T18:54:28.164Z,45.94
2019-02-06T18:56:56.000Z,45.84
2019-02-06T18:59:23.881Z,45.97
2019-02-06T19:01:51.735Z,46.26
2019-02-06T19:04:19.998Z,45.98
2019-02-06T19:06:47.926Z,45.84
2019-02-06T19:09:16.337Z,46.00
2019-02-06T19:11:44.191Z,45.91
2019-02-06T19:14:12.013Z,45.91
2019-02-06T19:16:39.955Z,46.08
2019-02-06T19:19:12.200Z,45.93
2019-02-06T19:21:42.802Z,46.11
2019-02-06T19:24:10.878Z,46.02
2019-02-06T19:26:38.696Z,46.27
2019-02-06T19:29:06.597Z,46.31
2019-02-06T19:31:34.428Z,46.36
2019-02-06T19:34:02.562Z,46.25
2019-02-06T19:36:30.459Z,45.86
2019-02-06T19:38:58.287Z,45.86
2019-02-06T19:41:26.084Z,46.10
2019-02-06T19:43:56.487Z,46.04
2019-02-06T19:46:24.320Z,46.39
2019-02-06T19:48:52.160Z,46.09
2019-02-06T19:51:19.976Z,46.04
2019-02-06T19:53:47.981Z,46.27
2019-02-06T19:56:15.798Z,46.16
2019-02-06T19:58:43.580Z,46.25
2019-02-06T20:01:11.389Z,46.04
2019-02-06T20:03:39.253Z,46.13
2019-02-06T20:06:07.074Z,46.05
2019-02-06T20:08:34.921Z,46.13
2019-02-06T20:11:02.776Z,46.09
2019-02-06T20:13:30.955Z,46.29
2019-02-06T20:15:58.876Z,46.17
2019-02-06T20:18:30.467Z,46.17
2019-02-06T20:20:58.210Z,46.20
2019-02-06T20:23:26.037Z,46.18
2019-02-06T20:26:31.427Z,46.33
2019-02-06T20:29:25.072Z,46.08
2019-02-06T20:36:05.549Z,45.97
2019-02-06T20:40:11.838Z,46.14
2019-02-06T20:42:25.329Z,45.98
2019-02-06T20:45:06.564Z,45.90
2019-02-06T20:47:37.773Z,46.14
2019-02-06T20:50:06.259Z,46.14
2019-02-06T20:52:34.263Z,46.09
2019-02-06T20:55:02.210Z,46.18
2019-02-06T20:57:31.512Z,46.18
2019-02-06T20:59:59.845Z,45.82
2019-02-06T21:02:29.553Z,45.73
2019-02-06T21:05:00.836Z,45.79
2019-02-06T21:07:28.817Z,45.88
2019-02-06T21:09:59.287Z,46.08
2019-02-06T21:12:27.237Z,46.20
2019-02-06T21:14:55.659Z,45.90
2019-02-06T21:17:23.730Z,46.05
2019-02-06T21:19:51.698Z,46.14
2019-02-06T21:22:19.666Z,45.96
2019-02-06T21:24:47.511Z,46.15
2019-02-06T21:27:15.369Z,46.09
2019-02-06T21:29:43.575Z,46.10
2019-02-06T21:32:12.743Z,45.93
2019-02-06T21:34:40.773Z,46.10
2019-02-06T21:37:15.746Z,45.85
2019-02-06T21:39:57.841Z,46.00
2019-02-06T21:42:25.728Z,46.43
2019-02-06T21:44:53.923Z,45.83
2019-02-06T21:47:24.883Z,46.05
2019-02-06T21:49:52.475Z,46.14
2019-02-06T21:52:21.348Z,45.81
2019-02-06T21:54:49.214Z,45.94
2019-02-06T21:57:17.041Z,45.64
2019-02-06T21:59:46.236Z,45.86
2019-02-06T22:02:14.074Z,45.63
2019-02-06T22:04:41.916Z,45.59
2019-02-06T22:07:09.740Z,45.58
2019-02-06T22:09:39.628Z,45.76
2019-02-06T22:12:10.623Z,45.74
2019-02-06T22:14:39.119Z,45.87
2019-02-06T22:17:06.974Z,45.78
2019-02-06T22:19:39.445Z,45.73
2019-02-06T22:22:31.729Z,45.60
2019-02-06T22:24:59.636Z,45.81
2019-02-06T22:27:27.477Z,45.72
2019-02-06T22:29:56.599Z,45.77
2019-02-06T22:32:24.720Z,45.76
2019-02-06T22:34:52.561Z,45.95
2019-02-06T22:37:23.456Z,45.68
2019-02-06T22:39:51.292Z,45.67
2019-02-06T22:42:19.417Z,45.58
2019-02-06T22:44:47.425Z,45.72
2019-02-06T22:47:15.187Z,45.77
2019-02-06T22:49:42.914Z,45.68
2019-02-06T22:52:10.945Z,45.71
2019-02-06T22:54:38.719Z,45.75
2019-02-06T22:57:06.577Z,45.75
2019-02-06T22:59:34.392Z,45.70
2019-02-06T23:02:02.148Z,45.84
2019-02-06T23:04:29.985Z,45.77
2019-02-06T23:06:57.812Z,46.09
2019-02-06T23:09:25.708Z,45.78
2019-02-06T23:11:53.552Z,45.85
2019-02-06T23:14:21.391Z,45.90
2019-02-06T23:16:49.226Z,45.76
2019-02-06T23:19:16.980Z,45.79
2019-02-06T23:21:44.880Z,45.88
2019-02-06T23:24:12.678Z,45.95
2019-02-06T23:26:40.419Z,45.88
2019-02-06T23:29:08.241Z,46.36
2019-02-06T23:31:36.396Z,46.05
2019-02-06T23:34:04.332Z,45.91
2019-02-06T23:36:32.340Z,46.08
2019-02-06T23:39:00.114Z,46.04
2019-02-06T23:41:27.921Z,46.14
2019-02-06T23:43:55.667Z,45.89
2019-02-06T23:46:23.436Z,46.19
2019-02-06T23:48:51.253Z,46.33
2019-02-06T23:51:19.081Z,46.16
2019-02-06T23:53:46.825Z,46.06
2019-02-06T23:56:14.578Z,46.29
2019-02-06T23:58:42.323Z,46.47
